Time;durP1;ratioP1;P1;durP2;ratioP2;P2;SDS_P1;SDS_P2;PMS_P1;PMS_P2;Temp;Humidity;BMP_temperature;BMP_pressure;BME280_temperature;BME280_humidity;BME280_pressure;Samples;Min_cycle;Max_cycle;Signal;HPM_P1;HPM_P2
2021/03/21 00:01:12;;;;;;;32.97;17.50;;;-1.20;99.90;;;;;;4208605;28;20752;-64
2021/03/21 00:03:13;;;;;;;43.03;19.77;;;-1.10;99.90;;;;;;4208455;28;20331;-65
2021/03/21 00:05:14;;;;;;;41.23;19.63;;;-1.10;99.90;;;;;;4208313;28;20337;-64
2021/03/21 00:07:16;;;;;;;38.37;18.53;;;-1.10;99.90;;;;;;4207920;28;20338;-63
2021/03/21 00:09:17;;;;;;;37.30;18.80;;;-1.10;99.90;;;;;;4208742;28;20288;-65
2021/03/21 00:11:19;;;;;;;39.00;19.73;;;-1.10;99.90;;;;;;4207437;28;20322;-64
2021/03/21 00:13:22;;;;;;;42.53;20.23;;;-1.20;99.90;;;;;;4208077;28;20336;-63
2021/03/21 00:15:24;;;;;;;41.93;20.83;;;-1.20;99.90;;;;;;4208370;28;20276;-62
2021/03/21 00:17:26;;;;;;;37.90;18.90;;;-1.20;99.90;;;;;;4208260;28;20290;-63
2021/03/21 00:19:27;;;;;;;39.47;18.37;;;-1.20;99.90;;;;;;4207719;28;20261;-62
2021/03/21 00:21:28;;;;;;;36.77;16.83;;;-1.30;99.90;;;;;;4208436;28;20322;-62
2021/03/21 00:23:29;;;;;;;36.50;17.10;;;-1.30;99.90;;;;;;4207688;28;20280;-65
2021/03/21 00:25:33;;;;;;;36.13;17.30;;;-1.40;99.90;;;;;;4208098;28;20814;-62
2021/03/21 00:27:34;;;;;;;32.87;15.97;;;-1.40;99.90;;;;;;4207682;28;20690;-65
2021/03/21 00:29:37;;;;;;;30.47;16.27;;;-1.40;99.90;;;;;;4207753;28;20277;-66
2021/03/21 00:31:38;;;;;;;32.53;16.50;;;-1.40;99.90;;;;;;4208107;28;20727;-63
2021/03/21 00:33:41;;;;;;;36.23;17.37;;;-1.50;99.90;;;;;;4206611;28;20269;-64
2021/03/21 00:35:42;;;;;;;36.90;17.30;;;-1.50;99.90;;;;;;4207047;28;20841;-63
2021/03/21 00:37:43;;;;;;;34.43;17.13;;;-1.50;99.90;;;;;;4207212;28;20303;-65
2021/03/21 00:39:44;;;;;;;37.03;16.83;;;-1.50;99.90;;;;;;4208495;28;20257;-66
2021/03/21 00:41:45;;;;;;;31.37;15.30;;;-1.60;99.90;;;;;;4207204;28;20671;-64
2021/03/21 00:43:46;;;;;;;30.27;13.80;;;-1.60;99.90;;;;;;4206741;28;20285;-65
2021/03/21 00:45:48;;;;;;;27.37;13.90;;;-1.60;99.90;;;;;;4206155;28;20281;-65
2021/03/21 00:47:50;;;;;;;29.03;12.47;;;-1.60;99.90;;;;;;4208286;28;20284;-64
2021/03/21 00:49:51;;;;;;;29.37;13.57;;;-1.60;99.90;;;;;;4206758;28;20722;-62
2021/03/21 00:51:52;;;;;;;24.63;12.80;;;-1.60;99.90;;;;;;4207308;28;20358;-64
2021/03/21 00:53:53;;;;;;;28.73;14.00;;;-1.70;99.90;;;;;;4207953;28;20265;-64
2021/03/21 00:55:54;;;;;;;29.63;14.57;;;-1.70;99.90;;;;;;4207878;28;20342;-64
2021/03/21 00:57:56;;;;;;;32.37;14.90;;;-1.70;99.90;;;;;;4207753;28;20374;-66
2021/03/21 00:59:57;;;;;;;28.97;14.13;;;-1.70;99.90;;;;;;4206008;28;20295;-62
2021/03/21 01:01:58;;;;;;;34.53;14.23;;;-1.70;99.90;;;;;;4207314;28;20326;-62
2021/03/21 01:04:00;;;;;;;29.80;15.57;;;-1.80;99.90;;;;;;4206584;28;20277;-62
2021/03/21 01:06:06;;;;;;;27.37;12.93;;;-1.80;99.90;;;;;;4207312;28;20272;-64
2021/03/21 01:08:24;;;;;;;31.83;14.80;;;-1.80;99.90;;;;;;4207125;28;20668;-62
2021/03/21 01:10:32;;;;;;;30.23;13.73;;;-1.80;99.90;;;;;;4207361;28;20265;-63
2021/03/21 01:12:33;;;;;;;25.53;13.60;;;-1.90;99.90;;;;;;4207055;28;20265;-64
2021/03/21 01:14:34;;;;;;;28.47;14.67;;;-1.90;99.90;;;;;;4207744;28;20314;-63
2021/03/21 01:16:38;;;;;;;33.77;14.67;;;-1.90;99.90;;;;;;4206448;28;20268;-64
2021/03/21 01:18:40;;;;;;;32.90;16.67;;;-2.00;99.90;;;;;;4207448;28;20338;-65
2021/03/21 01:20:41;;;;;;;36.97;17.73;;;-2.00;99.90;;;;;;4206849;28;20606;-65
2021/03/21 01:22:42;;;;;;;39.13;18.37;;;-2.00;99.90;;;;;;4207208;28;20281;-65
2021/03/21 01:24:44;;;;;;;41.50;18.77;;;-2.00;99.90;;;;;;4207039;28;20318;-65
2021/03/21 01:26:45;;;;;;;32.77;16.57;;;-2.10;99.90;;;;;;4206689;28;20359;-67
2021/03/21 01:28:47;;;;;;;33.73;17.53;;;-2.20;99.90;;;;;;4207003;28;20273;-67
2021/03/21 01:30:50;;;;;;;37.13;17.70;;;-2.20;99.90;;;;;;4207687;28;20268;-63
2021/03/21 01:32:52;;;;;;;35.20;17.43;;;-2.30;99.90;;;;;;4206519;28;20269;-62
2021/03/21 01:34:53;;;;;;;34.97;16.23;;;-2.20;99.90;;;;;;4206711;28;20329;-63
2021/03/21 01:36:55;;;;;;;34.07;16.07;;;-2.30;99.90;;;;;;4207063;28;20331;-64
2021/03/21 01:38:57;;;;;;;36.30;16.67;;;-2.30;99.90;;;;;;4206313;28;20305;-63
2021/03/21 01:41:02;;;;;;;35.90;16.73;;;-2.30;99.90;;;;;;4206889;28;20338;-63
2021/03/21 01:43:04;;;;;;;31.00;15.03;;;-2.40;99.90;;;;;;4206388;28;20276;-63
2021/03/21 01:45:28;;;;;;;35.83;15.20;;;-2.40;99.90;;;;;;4206276;28;20264;-63
2021/03/21 01:47:37;;;;;;;29.10;14.57;;;-2.40;99.90;;;;;;4200608;28;20308;-62
2021/03/21 01:49:43;;;;;;;29.00;15.23;;;-2.50;99.90;;;;;;4205765;28;20281;-67
2021/03/21 01:51:45;;;;;;;30.83;15.70;;;-2.50;99.90;;;;;;4206807;28;20338;-66
2021/03/21 01:53:51;;;;;;;30.03;14.93;;;-2.50;99.90;;;;;;4206837;28;20280;-64
2021/03/21 01:55:54;;;;;;;33.57;15.20;;;-2.50;99.90;;;;;;4206459;28;20342;-64
2021/03/21 01:57:55;;;;;;;33.43;15.23;;;-2.50;99.90;;;;;;4206521;28;20273;-64
2021/03/21 01:59:57;;;;;;;32.50;14.97;;;-2.60;99.90;;;;;;4206016;28;20776;-66
2021/03/21 02:02:00;;;;;;;26.23;13.77;;;-2.60;99.90;;;;;;4207193;28;20377;-63
2021/03/21 02:04:02;;;;;;;28.80;13.27;;;-2.60;99.90;;;;;;4205782;28;20317;-63
2021/03/21 02:06:30;;;;;;;29.77;13.73;;;-2.60;99.90;;;;;;4206724;28;20745;-62
2021/03/21 02:08:57;;;;;;;28.37;12.37;;;-2.60;99.90;;;;;;4205497;28;20286;-62
2021/03/21 02:11:16;;;;;;;28.17;12.05;;;-2.60;99.90;;;;;;4190273;28;20334;-63
2021/03/21 02:13:25;;;;;;;26.33;12.60;;;-2.60;99.90;;;;;;4206024;28;20036;-63
2021/03/21 02:15:51;;;;;;;22.35;11.57;;;-2.60;99.90;;;;;;4206302;28;20675;-63
2021/03/21 02:18:02;;;;;;;23.43;11.03;;;-2.60;99.90;;;;;;4206209;28;20020;-62
2021/03/21 02:20:25;;;;;;;21.58;10.10;;;-2.50;99.90;;;;;;4206525;28;20298;-63
2021/03/21 02:22:34;;;;;;;23.67;10.75;;;-2.50;99.90;;;;;;4206317;28;20371;-61
2021/03/21 02:24:41;;;;;;;24.45;10.77;;;-2.60;99.90;;;;;;4206705;28;20066;-63
2021/03/21 02:27:25;;;;;;;22.47;11.30;;;-2.50;99.90;;;;;;4205967;28;20495;-63
2021/03/21 02:29:42;;;;;;;22.23;10.37;;;-2.50;99.90;;;;;;4205716;28;20334;-63
2021/03/21 02:31:54;;;;;;;22.83;10.87;;;-2.50;99.90;;;;;;4206568;28;20797;-66
2021/03/21 02:34:09;;;;;;;23.23;10.98;;;-2.60;99.90;;;;;;4205638;28;20719;-63
2021/03/21 02:36:22;;;;;;;22.00;11.60;;;-2.60;99.90;;;;;;4206185;28;20032;-63
2021/03/21 02:38:42;;;;;;;23.03;10.90;;;-2.60;99.90;;;;;;4204681;28;21242;-63
2021/03/21 02:40:56;;;;;;;27.07;11.90;;;-2.70;99.90;;;;;;4204548;28;20292;-62
2021/03/21 02:43:03;;;;;;;29.13;12.87;;;-2.70;99.90;;;;;;4204900;28;20273;-63
2021/03/21 02:45:10;;;;;;;25.03;12.50;;;-2.70;99.90;;;;;;4206395;28;20281;-63
2021/03/21 02:47:16;;;;;;;27.65;11.77;;;-2.80;99.90;;;;;;4205629;28;20288;-64
2021/03/21 02:49:23;;;;;;;29.63;12.90;;;-2.80;99.90;;;;;;4206203;28;20109;-66
2021/03/21 02:51:33;;;;;;;27.53;12.43;;;-2.80;99.90;;;;;;4205315;28;20515;-63
2021/03/21 02:53:46;;;;;;;23.38;11.52;;;-2.80;99.90;;;;;;4205927;28;20294;-67
2021/03/21 02:55:51;;;;;;;23.48;11.50;;;-2.80;99.90;;;;;;4205161;28;20697;-65
2021/03/21 02:58:13;;;;;;;23.52;11.43;;;-2.90;99.90;;;;;;4206064;28;20032;-64
2021/03/21 03:00:15;;;;;;;27.63;12.20;;;-2.90;99.90;;;;;;4205477;28;20012;-64
2021/03/21 03:02:23;;;;;;;29.08;12.70;;;-2.90;99.90;;;;;;4208012;28;20089;-67
2021/03/21 03:04:43;;;;;;;27.73;12.05;;;-2.90;99.90;;;;;;4221781;28;20043;-65
2021/03/21 03:06:51;;;;;;;25.17;10.88;;;-3.00;99.90;;;;;;4222668;28;20468;-66
2021/03/21 03:09:03;;;;;;;24.08;11.10;;;-3.00;99.90;;;;;;4217271;28;20086;-66
2021/03/21 03:11:20;;;;;;;24.10;11.77;;;-3.00;99.90;;;;;;4204783;28;20408;-67
2021/03/21 03:13:27;;;;;;;25.13;11.73;;;-3.10;99.90;;;;;;4204989;28;20089;-65
2021/03/21 03:15:28;;;;;;;26.13;12.77;;;-3.10;99.90;;;;;;4206008;28;20040;-65
2021/03/21 03:17:40;;;;;;;27.83;13.07;;;-3.10;99.90;;;;;;4205462;28;20044;-66
2021/03/21 03:20:00;;;;;;;26.92;12.15;;;-3.10;99.90;;;;;;4205564;28;20024;-63
2021/03/21 03:22:19;;;;;;;29.15;13.25;;;-3.20;99.90;;;;;;4204906;28;20053;-63
2021/03/21 03:24:58;;;;;;;27.70;12.63;;;-3.20;99.90;;;;;;4206098;28;20422;-62
2021/03/21 03:27:19;;;;;;;28.95;13.30;;;-3.20;99.90;;;;;;4189079;28;20044;-63
2021/03/21 03:29:27;;;;;;;30.65;12.77;;;-3.20;99.90;;;;;;4205492;28;20032;-63
2021/03/21 03:31:36;;;;;;;27.33;12.73;;;-3.20;99.90;;;;;;4205067;28;20039;-66
2021/03/21 03:33:38;;;;;;;27.40;12.30;;;-3.30;99.90;;;;;;4205330;28;20077;-63
2021/03/21 03:35:39;;;;;;;26.95;12.88;;;-3.30;99.90;;;;;;4205605;28;20024;-62
2021/03/21 03:37:41;;;;;;;24.88;12.13;;;-3.30;99.90;;;;;;4205402;28;20461;-63
2021/03/21 03:39:42;;;;;;;25.35;12.23;;;-3.30;99.90;;;;;;4205403;28;20024;-63
2021/03/21 03:41:57;;;;;;;27.92;12.40;;;-3.30;99.90;;;;;;4204124;28;20569;-62
2021/03/21 03:44:21;;;;;;;24.30;11.68;;;-3.30;99.90;;;;;;4205109;28;20124;-64
2021/03/21 03:46:47;;;;;;;25.63;12.20;;;-3.40;99.90;;;;;;4205508;28;20028;-63
2021/03/21 03:49:34;;;;;;;25.40;13.18;;;-3.40;99.90;;;;;;4205165;28;20052;-64
2021/03/21 03:51:42;;;;;;;26.63;12.48;;;-3.40;99.90;;;;;;4181365;28;20056;-64
2021/03/21 03:54:17;;;;;;;29.55;13.60;;;-3.40;99.90;;;;;;4205172;28;20077;-64
2021/03/21 03:56:27;;;;;;;28.77;13.57;;;-3.50;99.90;;;;;;4204713;28;20081;-64
2021/03/21 03:58:43;;;;;;;29.65;13.35;;;-3.50;99.90;;;;;;4205912;28;20039;-64
2021/03/21 04:00:47;;;;;;;29.33;13.65;;;-3.50;99.90;;;;;;4204793;28;20020;-65
2021/03/21 04:03:22;;;;;;;30.25;14.00;;;-3.50;99.90;;;;;;4205365;28;20028;-63
2021/03/21 04:05:58;;;;;;;33.50;16.05;;;-3.60;99.90;;;;;;4204896;28;20040;-62
2021/03/21 04:08:12;;;;;;;37.95;15.18;;;-3.70;99.90;;;;;;4205290;28;20442;-65
2021/03/21 04:10:21;;;;;;;33.03;15.20;;;-3.70;99.90;;;;;;4206326;28;20027;-64
2021/03/21 04:12:33;;;;;;;31.55;15.10;;;-3.70;99.90;;;;;;4207862;28;20434;-64
2021/03/21 04:14:39;;;;;;;30.75;14.95;;;-3.70;99.90;;;;;;4208169;28;20354;-66
2021/03/21 04:17:00;;;;;;;35.72;16.05;;;-3.70;99.90;;;;;;4208256;28;20402;-66
2021/03/21 04:19:09;;;;;;;35.15;15.80;;;-3.70;99.90;;;;;;4207589;28;20093;-66
2021/03/21 04:21:24;;;;;;;32.72;15.90;;;-3.70;99.90;;;;;;4207782;28;20568;-63
2021/03/21 04:23:49;;;;;;;33.25;15.48;;;-3.70;99.90;;;;;;4207719;28;20032;-64
2021/03/21 04:26:04;;;;;;;30.42;15.52;;;-3.70;99.90;;;;;;4208136;28;20028;-66
2021/03/21 04:28:13;;;;;;;33.78;15.63;;;-3.80;99.90;;;;;;4208318;28;20048;-66
2021/03/21 04:30:19;;;;;;;34.72;15.25;;;-3.80;99.90;;;;;;4207820;28;20073;-66
2021/03/21 04:32:34;;;;;;;35.13;16.85;;;-3.80;99.90;;;;;;4208203;28;20024;-64
2021/03/21 04:34:39;;;;;;;36.42;16.40;;;-3.80;99.90;;;;;;4207714;28;20032;-64
2021/03/21 04:36:45;;;;;;;31.08;14.70;;;-3.80;99.90;;;;;;4207547;28;20020;-65
2021/03/21 04:38:51;;;;;;;34.05;16.25;;;-3.80;99.90;;;;;;4206488;28;20918;-61
2021/03/21 04:40:53;;;;;;;29.02;14.32;;;-3.80;99.90;;;;;;4207582;28;20426;-66
2021/03/21 04:43:00;;;;;;;32.85;14.35;;;-3.70;99.90;;;;;;4207932;28;20032;-66
2021/03/21 04:45:17;;;;;;;30.08;15.82;;;-3.60;99.90;;;;;;4207774;28;20024;-66
2021/03/21 04:47:46;;;;;;;38.92;16.38;;;-3.40;99.90;;;;;;4208141;28;20048;-66
2021/03/21 04:49:47;;;;;;;36.80;16.70;;;-3.10;99.90;;;;;;4207358;28;20093;-68
2021/03/21 04:51:54;;;;;;;32.08;14.93;;;-2.90;99.90;;;;;;4207473;28;20070;-67
2021/03/21 04:54:10;;;;;;;36.70;15.95;;;-2.70;99.90;;;;;;4207633;28;20069;-65
2021/03/21 04:56:23;;;;;;;31.52;14.63;;;-2.40;99.90;;;;;;4207380;28;20032;-66
2021/03/21 04:58:39;;;;;;;30.38;15.40;;;-2.00;99.90;;;;;;4207415;28;20089;-64
2021/03/21 05:00:46;;;;;;;30.90;14.13;;;-1.70;99.90;;;;;;4206545;28;20036;-67
2021/03/21 05:02:51;;;;;;;31.47;15.10;;;-1.30;99.90;;;;;;4207455;28;21000;-67
2021/03/21 05:05:29;;;;;;;28.67;14.40;;;-0.80;99.90;;;;;;4207009;28;20277;-63
2021/03/21 05:07:51;;;;;;;32.57;13.33;;;-0.30;99.90;;;;;;4200724;28;21111;-64
2021/03/21 05:10:06;;;;;;;23.70;11.83;;;0.20;99.90;;;;;;4206391;28;20273;-62
2021/03/21 05:12:21;;;;;;;25.23;12.50;;;0.50;99.90;;;;;;4207549;28;20277;-64
2021/03/21 05:14:31;;;;;;;22.97;12.07;;;1.00;99.90;;;;;;4206909;28;20264;-63
2021/03/21 05:16:55;;;;;;;22.30;12.07;;;1.30;99.90;;;;;;4208141;28;20733;-64
2021/03/21 05:18:59;;;;;;;25.50;11.47;;;1.70;99.90;;;;;;4207275;28;20549;-64
2021/03/21 05:21:30;;;;;;;25.03;10.40;;;2.10;99.90;;;;;;4206904;28;20257;-64
2021/03/21 05:23:50;;;;;;;21.88;9.23;;;2.40;99.90;;;;;;4207142;28;20589;-64
2021/03/21 05:26:17;;;;;;;19.60;8.77;;;2.70;99.90;;;;;;4207565;28;20047;-63
2021/03/21 05:28:44;;;;;;;16.20;8.30;;;3.20;99.90;;;;;;4185180;28;20168;-63
2021/03/21 05:30:46;;;;;;;16.77;8.57;;;3.60;99.90;;;;;;4206779;28;20276;-64
2021/03/21 05:32:50;;;;;;;13.77;7.60;;;3.70;99.40;;;;;;4206437;28;20317;-63
2021/03/21 05:34:55;;;;;;;14.53;7.37;;;3.80;99.90;;;;;;4207619;28;20338;-64
2021/03/21 05:37:10;;;;;;;14.67;8.17;;;3.80;97.70;;;;;;4207042;28;20302;-65
2021/03/21 05:39:44;;;;;;;14.67;8.23;;;3.80;96.40;;;;;;4206874;28;20264;-66
2021/03/21 05:42:07;;;;;;;14.10;8.13;;;3.70;93.80;;;;;;4185601;28;20281;-66
2021/03/21 05:44:20;;;;;;;20.27;9.47;;;4.10;93.10;;;;;;4206562;28;20330;-65
2021/03/21 05:46:46;;;;;;;12.97;8.30;;;4.20;93.80;;;;;;4206368;28;20281;-67
2021/03/21 05:49:06;;;;;;;12.80;7.57;;;4.60;93.50;;;;;;4206401;28;20350;-63
2021/03/21 05:51:19;;;;;;;15.20;8.73;;;4.70;91.80;;;;;;4206605;28;20302;-66
2021/03/21 05:53:47;;;;;;;11.60;7.17;;;4.80;89.90;;;;;;4206030;28;20085;-66
2021/03/21 05:56:25;;;;;;;14.10;8.33;;;4.70;83.70;;;;;;4207202;28;20273;-69
2021/03/21 05:58:35;;;;;;;13.83;8.20;;;4.90;80.50;;;;;;4206786;28;20039;-65
2021/03/21 06:01:15;;;;;;;15.27;8.40;;;5.00;86.20;;;;;;4205848;28;20326;-65
2021/03/21 06:03:37;;;;;;;14.73;8.00;;;5.50;80.60;;;;;;4206551;28;20032;-67
2021/03/21 06:05:47;;;;;;;14.17;7.93;;;5.70;82.30;;;;;;4205683;28;20060;-64
2021/03/21 06:08:18;;;;;;;14.30;8.82;;;6.10;82.20;;;;;;4206321;28;20505;-63
2021/03/21 06:10:38;;;;;;;14.45;9.25;;;6.70;76.70;;;;;;4205716;28;20468;-63
2021/03/21 06:13:19;;;;;;;13.20;7.80;;;7.10;72.40;;;;;;4206753;28;20028;-64
2021/03/21 06:15:37;;;;;;;14.38;8.55;;;7.40;69.40;;;;;;4206200;28;20101;-63
2021/03/21 06:17:57;;;;;;;15.43;8.20;;;7.50;70.70;;;;;;4206508;28;20085;-63
2021/03/21 06:20:13;;;;;;;17.13;8.83;;;7.60;67.10;;;;;;4205588;28;20048;-63
2021/03/21 06:22:27;;;;;;;15.73;8.87;;;7.40;67.80;;;;;;4206759;28;20537;-64
2021/03/21 06:25:03;;;;;;;17.03;9.20;;;7.40;69.60;;;;;;4205524;28;20065;-64
2021/03/21 06:27:10;;;;;;;14.83;8.60;;;7.70;69.60;;;;;;4193042;28;20048;-63
2021/03/21 06:29:29;;;;;;;14.77;8.90;;;7.90;68.60;;;;;;4205727;28;20040;-63
2021/03/21 06:31:42;;;;;;;22.50;10.77;;;8.40;68.10;;;;;;4205570;28;20028;-63
2021/03/21 06:33:56;;;;;;;14.93;8.90;;;8.90;67.40;;;;;;4204486;28;20040;-62
2021/03/21 06:36:12;;;;;;;15.13;8.37;;;9.10;66.00;;;;;;4205321;28;20069;-63
2021/03/21 06:38:50;;;;;;;18.53;9.50;;;9.30;62.60;;;;;;4205593;28;20032;-63
2021/03/21 06:41:15;;;;;;;14.50;8.33;;;9.00;61.20;;;;;;4205063;28;20028;-65
2021/03/21 06:43:18;;;;;;;16.00;9.20;;;9.10;62.70;;;;;;4173374;28;20838;-64
2021/03/21 06:45:38;;;;;;;18.57;9.17;;;9.40;63.20;;;;;;4205123;28;20089;-63
2021/03/21 06:48:01;;;;;;;14.87;8.70;;;9.40;62.40;;;;;;4206104;28;20081;-63
2021/03/21 06:50:14;;;;;;;10.57;7.70;;;9.00;59.20;;;;;;4205348;28;20093;-66
2021/03/21 06:52:49;;;;;;;12.50;7.93;;;8.50;59.50;;;;;;4205546;28;20032;-66
2021/03/21 06:55:00;;;;;;;20.80;13.43;;;8.50;60.20;;;;;;4205235;28;20036;-63
2021/03/21 06:57:37;;;;;;;41.45;26.92;;;8.80;62.00;;;;;;4205566;28;20615;-66
2021/03/21 07:00:16;;;;;;;55.27;35.30;;;9.20;58.70;;;;;;4205496;28;20544;-65
2021/03/21 07:02:54;;;;;;;22.10;14.07;;;8.60;58.00;;;;;;4187927;28;20040;-67
2021/03/21 07:05:25;;;;;;;22.97;14.90;;;8.40;60.00;;;;;;4202224;28;20086;-64
2021/03/21 07:07:29;;;;;;;13.80;8.83;;;8.70;62.00;;;;;;4205287;28;20113;-64
2021/03/21 07:09:48;;;;;;;14.13;9.03;;;9.00;60.90;;;;;;4205609;28;20093;-64
2021/03/21 07:12:01;;;;;;;14.03;9.50;;;8.80;59.40;;;;;;4205240;28;20108;-64
2021/03/21 07:14:05;;;;;;;22.23;9.10;;;8.80;60.10;;;;;;4205433;28;20480;-64
2021/03/21 07:16:48;;;;;;;13.23;8.00;;;9.10;59.40;;;;;;4203899;28;20036;-62
2021/03/21 07:19:26;;;;;;;15.53;9.00;;;9.00;57.70;;;;;;4197029;28;20036;-64
2021/03/21 07:22:05;;;;;;;14.93;8.63;;;8.90;55.90;;;;;;4205154;28;20791;-63
2021/03/21 07:24:38;;;;;;;13.80;7.87;;;8.40;57.70;;;;;;4204285;28;20035;-64
2021/03/21 07:26:45;;;;;;;17.10;8.17;;;8.20;56.80;;;;;;4181492;28;20036;-66
2021/03/21 07:29:19;;;;;;;15.83;8.63;;;8.20;60.20;;;;;;4204914;28;20043;-64
2021/03/21 07:31:29;;;;;;;15.73;9.70;;;8.10;58.00;;;;;;4204412;28;20453;-66
2021/03/21 07:34:06;;;;;;;13.33;8.33;;;8.40;60.50;;;;;;4204706;28;20086;-62
2021/03/21 07:36:38;;;;;;;17.97;8.63;;;8.70;60.20;;;;;;4179887;28;20265;-68
2021/03/21 07:39:00;;;;;;;14.27;8.27;;;8.90;58.10;;;;;;4158591;28;20052;-66
2021/03/21 07:41:25;;;;;;;14.83;8.50;;;8.70;58.30;;;;;;4203974;28;20770;-68
2021/03/21 07:43:51;;;;;;;12.53;8.77;;;8.10;59.50;;;;;;4204019;28;20069;-64
2021/03/21 07:46:17;;;;;;;13.90;8.53;;;7.80;59.90;;;;;;4207483;28;20533;-67
2021/03/21 07:48:33;;;;;;;13.67;8.17;;;7.80;60.60;;;;;;4208413;28;20032;-64
2021/03/21 07:51:01;;;;;;;11.13;7.27;;;7.70;60.80;;;;;;4208252;28;20032;-67
2021/03/21 07:53:17;;;;;;;13.50;6.97;;;7.30;60.20;;;;;;4206388;28;20039;-65
2021/03/21 07:55:55;;;;;;;13.33;7.83;;;6.80;59.90;;;;;;4207492;28;20555;-64
2021/03/21 07:58:00;;;;;;;14.33;8.03;;;6.30;59.80;;;;;;4171149;28;20061;-65
2021/03/21 08:00:05;;;;;;;15.80;8.33;;;6.10;62.70;;;;;;4203503;28;20031;-65
2021/03/21 08:02:11;;;;;;;17.63;8.70;;;5.80;61.80;;;;;;4208413;28;20081;-65
2021/03/21 08:04:19;;;;;;;14.63;8.43;;;5.80;63.20;;;;;;4208283;28;20565;-63
2021/03/21 08:06:28;;;;;;;14.87;8.47;;;5.90;63.80;;;;;;4207443;28;20326;-64
2021/03/21 08:08:35;;;;;;;16.00;8.60;;;6.00;64.00;;;;;;4208036;28;20345;-65
2021/03/21 08:10:39;;;;;;;16.43;8.97;;;6.00;63.70;;;;;;4207632;28;20326;-64
2021/03/21 08:12:47;;;;;;;14.90;8.53;;;5.70;63.00;;;;;;4207669;28;20337;-64
2021/03/21 08:14:50;;;;;;;15.37;9.03;;;4.90;64.80;;;;;;4207825;28;20377;-63
2021/03/21 08:16:55;;;;;;;16.97;9.90;;;4.80;66.00;;;;;;4207384;28;20350;-61
2021/03/21 08:18:58;;;;;;;18.30;10.23;;;4.60;67.00;;;;;;4207440;28;20349;-66
2021/03/21 08:21:02;;;;;;;15.97;9.63;;;4.50;68.00;;;;;;4208011;28;20353;-66
2021/03/21 08:23:21;;;;;;;15.00;9.37;;;4.60;67.90;;;;;;4207846;28;20314;-66
2021/03/21 08:25:24;;;;;;;15.80;9.20;;;4.50;67.60;;;;;;4205891;28;20313;-66
2021/03/21 08:27:30;;;;;;;16.13;9.80;;;4.40;68.40;;;;;;4208006;28;20276;-63
2021/03/21 08:30:05;;;;;;;18.17;9.70;;;4.10;68.70;;;;;;4207434;28;20304;-61
2021/03/21 08:32:10;;;;;;;16.20;9.90;;;4.00;69.80;;;;;;4207525;28;21020;-63
2021/03/21 08:34:44;;;;;;;18.23;9.80;;;4.00;70.10;;;;;;4207358;28;20268;-62
2021/03/21 08:36:45;;;;;;;18.67;10.20;;;4.20;70.60;;;;;;4205456;28;20268;-61
2021/03/21 08:38:59;;;;;;;20.30;11.43;;;4.50;70.00;;;;;;4207316;28;20269;-63
2021/03/21 08:41:02;;;;;;;19.43;10.70;;;4.40;70.10;;;;;;4206261;28;20277;-64
2021/03/21 08:43:24;;;;;;;18.53;10.33;;;4.40;70.60;;;;;;4207534;28;20268;-63
2021/03/21 08:45:40;;;;;;;18.87;9.63;;;4.70;71.40;;;;;;4207040;28;20752;-62
2021/03/21 08:47:42;;;;;;;43.77;24.00;;;4.80;70.10;;;;;;4207210;28;20276;-62
2021/03/21 08:49:50;;;;;;;20.90;11.90;;;4.40;71.00;;;;;;4207727;28;20342;-62
2021/03/21 08:51:52;;;;;;;18.03;9.40;;;4.30;72.00;;;;;;4207479;28;20269;-62
2021/03/21 08:54:11;;;;;;;18.47;9.50;;;4.30;72.90;;;;;;4206809;28;20272;-62
2021/03/21 08:56:21;;;;;;;22.43;9.63;;;4.40;72.60;;;;;;4206668;28;20290;-62
2021/03/21 08:58:25;;;;;;;25.65;10.85;;;4.40;71.20;;;;;;4207275;28;20330;-61
2021/03/21 09:00:26;;;;;;;20.47;10.33;;;4.60;71.80;;;;;;4207361;28;21668;-61
2021/03/21 09:02:37;;;;;;;18.63;10.70;;;4.70;72.60;;;;;;4206847;28;20617;-61
2021/03/21 09:04:44;;;;;;;14.67;9.27;;;5.00;73.20;;;;;;4206771;28;20318;-62
2021/03/21 09:06:47;;;;;;;20.73;10.17;;;5.00;72.80;;;;;;4207006;28;21138;-62
2021/03/21 09:08:48;;;;;;;16.57;9.10;;;5.00;73.30;;;;;;4206933;28;20288;-62
2021/03/21 09:10:59;;;;;;;15.93;8.53;;;4.90;72.70;;;;;;4207259;28;20260;-62
2021/03/21 09:13:03;;;;;;;14.73;8.43;;;4.80;71.50;;;;;;4207240;28;20268;-62
2021/03/21 09:15:16;;;;;;;15.43;8.67;;;5.00;71.30;;;;;;4206875;28;20655;-62
2021/03/21 09:17:24;;;;;;;15.53;8.17;;;5.10;69.90;;;;;;4206690;28;20733;-62
2021/03/21 09:19:31;;;;;;;15.00;8.20;;;5.10;69.90;;;;;;4206885;28;20761;-62
2021/03/21 09:21:32;;;;;;;12.87;7.80;;;5.40;70.00;;;;;;4205190;28;20268;-62
2021/03/21 09:23:47;;;;;;;16.70;8.67;;;5.40;69.40;;;;;;4206601;28;20269;-62
2021/03/21 09:25:52;;;;;;;24.10;10.83;;;5.50;68.70;;;;;;4205004;28;20304;-62
2021/03/21 09:27:55;;;;;;;17.60;8.90;;;5.40;69.40;;;;;;4206694;28;20385;-61
2021/03/21 09:29:59;;;;;;;15.37;9.10;;;5.50;69.60;;;;;;4206574;28;20286;-62
2021/03/21 09:32:04;;;;;;;16.30;9.37;;;5.30;70.10;;;;;;4205271;28;20284;-62
2021/03/21 09:34:44;;;;;;;13.20;8.30;;;5.40;70.60;;;;;;4206064;28;20752;-62
2021/03/21 09:36:51;;;;;;;15.23;8.67;;;5.50;68.90;;;;;;4197282;28;20817;-61
2021/03/21 09:39:12;;;;;;;15.33;9.03;;;5.40;69.00;;;;;;4206584;28;20330;-62
2021/03/21 09:41:14;;;;;;;16.33;8.70;;;5.50;68.30;;;;;;4206237;28;20276;-60
2021/03/21 09:43:20;;;;;;;15.67;8.47;;;5.60;68.70;;;;;;4206754;28;20276;-62
2021/03/21 09:45:21;;;;;;;14.87;8.80;;;5.60;67.90;;;;;;4206518;28;20338;-62
2021/03/21 09:47:42;;;;;;;15.80;8.80;;;5.80;68.00;;;;;;4206559;28;20273;-64
2021/03/21 09:49:57;;;;;;;15.27;8.83;;;5.90;67.60;;;;;;4206397;28;20618;-62
2021/03/21 09:52:23;;;;;;;13.17;8.63;;;5.80;66.10;;;;;;4205854;28;20269;-62
2021/03/21 09:54:46;;;;;;;15.20;8.43;;;5.60;66.40;;;;;;4206066;28;20348;-62
2021/03/21 09:57:00;;;;;;;13.97;9.17;;;5.70;68.00;;;;;;4206794;28;20269;-62
2021/03/21 09:59:26;;;;;;;13.83;9.03;;;5.70;67.90;;;;;;4206279;28;20330;-62
2021/03/21 10:01:33;;;;;;;18.73;9.60;;;5.80;67.10;;;;;;4206773;28;20326;-62
2021/03/21 10:03:35;;;;;;;13.87;9.67;;;5.80;67.70;;;;;;4205739;28;20314;-62
2021/03/21 10:05:46;;;;;;;13.97;9.27;;;5.80;68.30;;;;;;4206162;28;20285;-62
2021/03/21 10:07:59;;;;;;;12.90;8.48;;;6.00;68.40;;;;;;4205868;28;20330;-62
2021/03/21 10:10:02;;;;;;;18.17;9.70;;;6.00;68.00;;;;;;4206122;28;20101;-61
2021/03/21 10:12:09;;;;;;;16.07;9.00;;;6.00;68.30;;;;;;4205563;28;20314;-63
2021/03/21 10:14:22;;;;;;;15.73;9.27;;;6.30;68.20;;;;;;4205420;28;20281;-62
2021/03/21 10:16:27;;;;;;;20.43;10.33;;;6.10;66.10;;;;;;4204579;28;20276;-65
2021/03/21 10:18:40;;;;;;;16.17;10.40;;;6.10;68.90;;;;;;4205467;28;20345;-64
2021/03/21 10:21:22;;;;;;;17.70;10.57;;;6.30;70.80;;;;;;4205257;28;20322;-61
2021/03/21 10:23:50;;;;;;;17.27;9.50;;;6.60;69.90;;;;;;4185392;28;20281;-61
2021/03/21 10:25:54;;;;;;;14.93;8.90;;;6.60;66.90;;;;;;4204998;28;20294;-61
2021/03/21 10:28:15;;;;;;;14.50;9.03;;;6.40;69.60;;;;;;4206230;28;20281;-61
2021/03/21 10:30:19;;;;;;;;;;;6.40;68.30;;;;;;4205869;28;20293;-60
2021/03/21 10:32:20;;;;;;;15.73;8.33;;;6.30;63.90;;;;;;4206045;28;19904;-66
2021/03/21 10:34:21;;;;;;;17.87;9.07;;;6.20;66.40;;;;;;4205246;28;20276;-66
2021/03/21 10:36:38;;;;;;;13.23;8.63;;;5.90;67.10;;;;;;4205950;28;20284;-64
2021/03/21 10:38:45;;;;;;;16.90;8.13;;;5.90;68.30;;;;;;4204678;28;20719;-62
2021/03/21 10:40:46;;;;;;;16.27;8.83;;;5.90;67.30;;;;;;4204250;28;20261;-62
2021/03/21 10:42:55;;;;;;;13.83;8.47;;;5.80;66.80;;;;;;4205061;28;20832;-62
2021/03/21 10:44:58;;;;;;;13.00;8.23;;;5.70;67.70;;;;;;4206107;28;20269;-61
2021/03/21 10:46:59;;;;;;;13.40;8.60;;;5.80;67.80;;;;;;4204873;28;20277;-68
2021/03/21 10:49:00;;;;;;;14.70;8.53;;;5.90;67.80;;;;;;4205544;28;20292;-62
2021/03/21 10:51:05;;;;;;;14.37;8.53;;;6.10;68.20;;;;;;4205314;28;20302;-61
2021/03/21 10:53:34;;;;;;;12.77;7.87;;;6.20;67.50;;;;;;4205307;28;20321;-61
2021/03/21 10:55:36;;;;;;;13.40;8.17;;;6.00;65.70;;;;;;4204575;28;20286;-65
2021/03/21 10:57:52;;;;;;;15.33;8.97;;;5.80;66.30;;;;;;4205836;28;20674;-63
2021/03/21 11:00:12;;;;;;;14.73;8.57;;;5.90;67.00;;;;;;4202961;28;20307;-62
2021/03/21 11:02:21;;;;;;;19.17;8.93;;;5.80;65.90;;;;;;4202871;28;20327;-62
2021/03/21 11:04:26;;;;;;;14.10;8.47;;;5.90;66.60;;;;;;4204324;28;20449;-62
2021/03/21 11:06:34;;;;;;;14.63;8.70;;;6.10;66.50;;;;;;4205277;28;21328;-62
2021/03/21 11:08:35;;;;;;;15.07;8.07;;;6.20;66.60;;;;;;4186699;28;20282;-61
2021/03/21 11:10:42;;;;;;;15.37;8.03;;;6.20;66.00;;;;;;4204502;28;20292;-62
2021/03/21 11:12:43;;;;;;;14.90;8.57;;;6.20;66.00;;;;;;4204869;28;20670;-64
2021/03/21 11:14:44;;;;;;;14.70;8.60;;;6.10;66.50;;;;;;4205468;28;20281;-60
2021/03/21 11:17:20;;;;;;;16.27;9.17;;;6.10;66.50;;;;;;4205054;28;20912;-61
2021/03/21 11:19:25;;;;;;;15.10;8.40;;;5.90;65.10;;;;;;4203056;28;20294;-62
2021/03/21 11:21:27;;;;;;;13.37;8.17;;;5.90;66.80;;;;;;4204127;28;20798;-60